Track Фоменко максим

Time Latitude Longitude Accuracy (66% radius in meters) Altitude (meters) Speed (km/hour) Bearing (degrees) Battery (%) GPS flag
10:56:47 51.753781 39.189476 12 181.48210514566 0.48438784480095 280.88662719727 63 1 delete
10:56:41 51.753747 39.189465 12 181.87172519536 0.028487917035818 352.83419799805 63 1 delete
10:56:39 51.753728 39.189447 8 181.96331797696 0.50509107112885 352.83419799805 63 1 delete
10:56:32 51.753690 39.189414 12 182.32140762773 0.98423713445663 105.0475692749 63 1 delete
10:56:27 51.753637 39.189397 6 182.1940915753 0.97770553827286 14.089895248413 63 1 delete
10:56:20 51.753562 39.189403 6 182.12953823326 0.9774888753891 21.107206344604 63 1 delete
10:56:15 51.753511 39.189390 8 181.99520701493 1.0391699075699 65.579055786133 63 1 delete
10:56:12 51.753501 39.189357 8 182.05815131522 1.1173721551895 63.069637298584 63 1 delete
10:56:05 51.753467 39.189257 6 182.11382094564 1.343291759491 53.477607727051 63 1 delete
10:56:03 51.753443 39.189229 6 182.17407817465 1.2598477602005 33.364707946777 63 1 delete
10:56:00 51.753419 39.189188 4 182.17773208298 1.2503103017807 83.981147766113 63 1 delete
10:55:53 51.753394 39.189057 6 181.96086387946 1.2979720830917 71.543533325195 63 1 delete
10:55:51 51.753383 39.189004 12 181.90562418654 1.3243153095245 80.954620361328 63 1 delete
10:55:48 51.753369 39.188936 6 181.81588639906 1.3376753330231 97.158470153809 63 1 delete
10:55:44 51.753366 39.188852 6 181.76046359292 1.2982892990112 78.253662109375 63 1 delete
10:55:39 51.753360 39.188758 12 181.92689263415 1.3838820457458 69.609786987305 63 1 delete
10:55:32 51.753319 39.188641 6 181.81607058956 1.4420449733734 76.131813049316 63 1 delete
10:55:29 51.753291 39.188566 6 181.81312237391 1.4796766042709 60.091667175293 63 1 delete
10:55:27 51.753265 39.188503 6 181.76491937106 1.5171320438385 55.440010070801 63 1 delete
10:55:24 51.753238 39.188448 6 181.59519922042 1.5410380363464 49.586013793945 63 1 delete
10:55:20 51.753205 39.188380 6 181.49708975868 1.5572890043259 69.415924072266 63 1 delete
10:55:17 51.753183 39.188299 6 181.53324204725 1.5464059114456 70.805168151855 63 1 delete
10:55:15 51.753147 39.188250 6 181.58049414583 1.4826810359955 17.586078643799 63 1 delete
10:55:12 51.753110 39.188233 6 181.61127138491 1.5101997852325 26.281665802002 63 1 delete
10:55:08 51.753070 39.188216 8 181.34225146361 1.4437737464905 21.10662651062 63 1 delete
10:55:05 51.753008 39.188172 8 181.02559453675 1.3074892759323 37.841323852539 63 1 delete
10:55:03 51.752954 39.188127 8 180.39171749066 1.2403948307037 25.630252838135 63 1 delete
10:55:00 51.752895 39.188101 8 179.52152737649 1.1502825021744 34.642795562744 63 1 delete
10:54:56 51.752863 39.188079 12 178.80164123213 1.2025567293167 12.114554405212 63 1 delete
10:54:48 51.752799 39.188033 6 178.54834544393 0 190.89097595215 63 1 delete
10:54:36 51.752809 39.188032 8 178.67227986922 0.38687539100647 190.89097595215 63 1 delete
10:54:27 51.752806 39.188037 8 179.76104702888 0 190.89097595215 63 1 delete
10:54:15 51.752806 39.188037 6 180.40391639207 0.0048396438360214 190.89097595215 63 1 delete
10:54:03 51.752806 39.188037 6 180.17190514891 0 190.89097595215 63 1 delete
10:53:51 51.752806 39.188037 8 180.06311229511 0.14692084491253 190.89097595215 63 1 delete
10:53:39 51.752806 39.188037 16 180.04697138152 0 190.89097595215 63 1 delete
10:53:27 51.752806 39.188037 16 179.92472044393 0 190.89097595215 63 1 delete
10:53:17 51.752806 39.188037 8 179.66586753519 0.39745637774467 190.89097595215 63 1 delete
10:53:15 51.752816 39.188045 16 179.43664411242 0.18309155106544 149.89706420898 63 1 delete
10:53:03 51.752816 39.188045 12 179.00269688425 0 149.89706420898 63 1 delete
10:52:51 51.752816 39.188045 12 178.86692282577 0 149.89706420898 63 1 delete
10:52:39 51.752816 39.188045 6 178.85385665971 0.0035693347454071 149.89706420898 63 1 delete
10:52:27 51.752816 39.188045 24 178.48536249544 0 149.89706420898 63 1 delete
10:52:15 51.752830 39.188045 8 178.20320192507 0.001770434784703 333.27590942383 63 1 delete
10:52:03 51.752818 39.188110 12 178.02688105991 0.22337570786476 159.32704162598 63 1 delete
10:51:56 51.752818 39.188110 12 177.80746719141 0.011298517696559 159.32704162598 63 1 delete
10:51:51 51.752858 39.188097 12 178.14935513732 0.0059556616470218 183.45829772949 63 1 delete
10:51:39 51.752858 39.188097 8 179.09628755807 0 183.45829772949 63 1 delete
10:51:27 51.752878 39.188066 16 178.03336184615 0 0.78799933195114 63 1 delete
10:51:15 51.752856 39.188063 8 177.82231527324 1.1616358757019 4.2582545280457 63 1 delete